Time;durP1;ratioP1;P1;durP2;ratioP2;P2;SDS_P1;SDS_P2;PMS_P1;PMS_P2;Temp;Humidity;BMP_temperature;BMP_pressure;BME280_temperature;BME280_humidity;BME280_pressure;Samples;Min_cycle;Max_cycle;Signal;HPM_P1;HPM_P2
2022/08/21 00:00:09;;;;;;;29.60;26.40;;;;;;;;;;5074728;28;24884;-49
2022/08/21 00:02:35;;;;;;;33.17;26.20;;;;;;;;;;5086860;28;24406;-49
2022/08/21 00:05:00;;;;;;;35.17;29.35;;;;;;;;;;5087295;28;24927;-52
2022/08/21 00:07:25;;;;;;;31.00;26.00;;;;;;;;;;5087285;28;24435;-49
2022/08/21 00:09:51;;;;;;;30.40;25.43;;;;;;;;;;5087173;28;24951;-50
2022/08/21 00:12:16;;;;;;;33.90;28.02;;;;;;;;;;5086921;28;24976;-51
2022/08/21 00:14:41;;;;;;;29.83;24.17;;;;;;;;;;5087259;28;24421;-49
2022/08/21 00:17:06;;;;;;;27.87;22.97;;;;;;;;;;5086773;28;24417;-50
2022/08/21 00:19:32;;;;;;;34.90;27.15;;;;;;;;;;5086741;28;24783;-49
2022/08/21 00:21:57;;;;;;;27.67;23.80;;;;;;;;;;5087389;28;24509;-49
2022/08/21 00:24:23;;;;;;;26.67;22.27;;;;;;;;;;5086909;28;24425;-49
2022/08/21 00:26:48;;;;;;;29.37;24.00;;;;;;;;;;5086838;28;24374;-48
2022/08/21 00:29:14;;;;;;;26.97;23.87;;;;;;;;;;5087434;28;24394;-49
2022/08/21 00:31:39;;;;;;;28.45;24.30;;;;;;;;;;5086855;28;24565;-49
2022/08/21 00:34:06;;;;;;;28.13;23.25;;;;;;;;;;5086711;28;24459;-49
2022/08/21 00:36:31;;;;;;;29.52;25.25;;;;;;;;;;5085000;28;24417;-50
2022/08/21 00:38:56;;;;;;;28.37;24.33;;;;;;;;;;5086759;28;24453;-50
2022/08/21 00:41:23;;;;;;;30.70;25.63;;;;;;;;;;5084935;28;24413;-50
2022/08/21 00:43:49;;;;;;;27.88;23.85;;;;;;;;;;5085659;28;26580;-49
2022/08/21 00:46:14;;;;;;;29.00;25.27;;;;;;;;;;5089584;28;24436;-50
2022/08/21 00:48:39;;;;;;;28.77;25.55;;;;;;;;;;5084313;28;24465;-50
2022/08/21 00:51:07;;;;;;;28.83;23.92;;;;;;;;;;5086634;28;24429;-49
2022/08/21 00:53:35;;;;;;;29.38;24.70;;;;;;;;;;5089471;28;24471;-50
2022/08/21 00:56:02;;;;;;;29.50;25.30;;;;;;;;;;5088633;28;25009;-49
2022/08/21 00:58:28;;;;;;;29.35;25.00;;;;;;;;;;5088821;28;24837;-49
2022/08/21 01:00:54;;;;;;;31.73;25.73;;;;;;;;;;5089331;28;24433;-49
2022/08/21 01:03:22;;;;;;;31.87;26.30;;;;;;;;;;5089357;28;24415;-49
2022/08/21 01:05:47;;;;;;;30.08;26.60;;;;;;;;;;5088636;28;24595;-49
2022/08/21 01:08:13;;;;;;;31.60;27.00;;;;;;;;;;5089568;28;24513;-49
2022/08/21 01:10:38;;;;;;;34.05;27.30;;;;;;;;;;5088576;28;24863;-50
2022/08/21 01:13:06;;;;;;;32.70;26.33;;;;;;;;;;5088712;28;24997;-49
2022/08/21 01:15:33;;;;;;;39.05;29.25;;;;;;;;;;5088540;28;24536;-49
2022/08/21 01:17:58;;;;;;;33.38;27.77;;;;;;;;;;5087937;28;24437;-48
2022/08/21 01:20:23;;;;;;;40.13;30.10;;;;;;;;;;5089171;28;24433;-48
2022/08/21 01:22:48;;;;;;;41.47;30.40;;;;;;;;;;5086266;28;24423;-49
2022/08/21 01:25:15;;;;;;;40.90;30.52;;;;;;;;;;5069241;28;24457;-49
2022/08/21 01:27:40;;;;;;;47.83;34.08;;;;;;;;;;5067694;28;24427;-49
2022/08/21 01:30:08;;;;;;;43.17;30.75;;;;;;;;;;5068354;28;24421;-49
2022/08/21 01:32:33;;;;;;;40.22;28.70;;;;;;;;;;5067834;28;24434;-49
2022/08/21 01:34:58;;;;;;;36.40;28.05;;;;;;;;;;5068186;28;25282;-50
2022/08/21 01:37:24;;;;;;;42.15;31.33;;;;;;;;;;5069126;28;24454;-49
2022/08/21 01:39:49;;;;;;;36.80;27.97;;;;;;;;;;5068625;28;24442;-50
2022/08/21 01:42:14;;;;;;;37.33;27.50;;;;;;;;;;5069709;28;24410;-50
2022/08/21 01:44:40;;;;;;;27.40;22.88;;;;;;;;;;5068995;28;24446;-50
2022/08/21 01:47:07;;;;;;;25.02;22.40;;;;;;;;;;5068400;28;24449;-50
2022/08/21 01:49:32;;;;;;;26.30;21.60;;;;;;;;;;5067928;28;25015;-50
2022/08/21 01:51:58;;;;;;;23.20;19.93;;;;;;;;;;5068807;28;24455;-50
2022/08/21 01:54:23;;;;;;;19.93;17.47;;;;;;;;;;5068501;28;24449;-49
2022/08/21 01:56:49;;;;;;;18.97;16.93;;;;;;;;;;5068409;28;24432;-50
2022/08/21 01:59:14;;;;;;;19.60;17.50;;;;;;;;;;5068353;28;24453;-50
2022/08/21 02:01:40;;;;;;;19.30;17.30;;;;;;;;;;5068217;28;24481;-50
2022/08/21 02:04:06;;;;;;;18.83;16.10;;;;;;;;;;5067492;28;24423;-50
2022/08/21 02:06:31;;;;;;;16.30;14.65;;;;;;;;;;5068719;28;24430;-49
2022/08/21 02:08:56;;;;;;;18.35;16.48;;;;;;;;;;5068414;28;24403;-50
2022/08/21 02:11:21;;;;;;;18.75;16.75;;;;;;;;;;5067404;28;24999;-49
2022/08/21 02:13:46;;;;;;;17.83;15.93;;;;;;;;;;5068329;28;24462;-50
2022/08/21 02:16:12;;;;;;;17.80;15.90;;;;;;;;;;5067062;28;24414;-50
2022/08/21 02:18:37;;;;;;;15.83;14.33;;;;;;;;;;5067412;28;25025;-50
2022/08/21 02:21:03;;;;;;;15.73;14.13;;;;;;;;;;5067756;28;24820;-49
2022/08/21 02:23:28;;;;;;;15.15;13.75;;;;;;;;;;5049821;28;24427;-49
2022/08/21 02:25:54;;;;;;;16.60;14.90;;;;;;;;;;5062256;28;24881;-49
2022/08/21 02:28:19;;;;;;;15.30;13.80;;;;;;;;;;5064753;28;24398;-50
2022/08/21 02:30:46;;;;;;;15.85;14.25;;;;;;;;;;5065654;28;24467;-50
2022/08/21 02:33:11;;;;;;;15.32;13.82;;;;;;;;;;5068043;28;24423;-50
2022/08/21 02:35:38;;;;;;;14.50;12.98;;;;;;;;;;5067760;28;24425;-52
2022/08/21 02:38:05;;;;;;;15.13;13.60;;;;;;;;;;5068517;28;24426;-51
2022/08/21 02:40:32;;;;;;;14.60;13.15;;;;;;;;;;5069035;28;24453;-50
2022/08/21 02:42:58;;;;;;;15.15;13.65;;;;;;;;;;5067594;28;26731;-51
2022/08/21 02:45:23;;;;;;;14.30;13.00;;;;;;;;;;5067574;28;25037;-51
2022/08/21 02:47:53;;;;;;;15.33;13.73;;;;;;;;;;5067808;28;24749;-50
2022/08/21 02:50:20;;;;;;;14.98;13.43;;;;;;;;;;5067021;28;24422;-49
2022/08/21 02:52:45;;;;;;;14.57;13.07;;;;;;;;;;5068288;28;24398;-50
2022/08/21 02:55:10;;;;;;;14.97;13.47;;;;;;;;;;5067608;28;24429;-50
2022/08/21 02:57:36;;;;;;;13.93;12.63;;;;;;;;;;5068046;28;25021;-49
2022/08/21 03:00:01;;;;;;;13.70;12.30;;;;;;;;;;5064774;28;24510;-49
2022/08/21 03:02:26;;;;;;;12.73;11.53;;;;;;;;;;5066978;28;24808;-49
2022/08/21 03:04:51;;;;;;;13.17;11.87;;;;;;;;;;5067215;28;24765;-50
2022/08/21 03:07:16;;;;;;;13.57;12.18;;;;;;;;;;5066651;28;24447;-49
2022/08/21 03:09:42;;;;;;;13.33;12.03;;;;;;;;;;5066726;28;24477;-49
2022/08/21 03:12:07;;;;;;;13.60;12.30;;;;;;;;;;5065522;28;24436;-50
2022/08/21 03:14:32;;;;;;;12.50;11.30;;;;;;;;;;5066977;28;24468;-49
2022/08/21 03:16:57;;;;;;;12.67;11.47;;;;;;;;;;5065139;28;25126;-50
2022/08/21 03:19:22;;;;;;;12.13;10.93;;;;;;;;;;5067319;28;24418;-49
2022/08/21 03:21:47;;;;;;;12.27;11.07;;;;;;;;;;5066698;28;24864;-49
2022/08/21 03:24:13;;;;;;;12.60;11.30;;;;;;;;;;5080738;28;24445;-50
2022/08/21 03:26:38;;;;;;;12.23;11.03;;;;;;;;;;5086606;28;24428;-49
2022/08/21 03:29:03;;;;;;;12.45;11.20;;;;;;;;;;5086540;28;24403;-50
2022/08/21 03:31:30;;;;;;;12.63;11.43;;;;;;;;;;5085973;28;24422;-50
2022/08/21 03:33:56;;;;;;;11.65;10.60;;;;;;;;;;5085724;28;24458;-49
2022/08/21 03:36:21;;;;;;;11.77;10.57;;;;;;;;;;5085475;28;24442;-49
2022/08/21 03:38:46;;;;;;;12.03;10.93;;;;;;;;;;5087304;28;24378;-48
2022/08/21 03:41:12;;;;;;;12.30;11.10;;;;;;;;;;5085871;28;24471;-49
2022/08/21 03:43:38;;;;;;;13.50;12.30;;;;;;;;;;5086360;28;24563;-50
2022/08/21 03:46:03;;;;;;;13.52;12.27;;;;;;;;;;5085395;28;24436;-50
2022/08/21 03:48:29;;;;;;;15.23;13.03;;;;;;;;;;5085533;28;24430;-50
2022/08/21 03:50:54;;;;;;;12.47;11.27;;;;;;;;;;5086774;28;24437;-51
2022/08/21 03:53:19;;;;;;;12.90;11.60;;;;;;;;;;5084271;28;24422;-51
2022/08/21 03:55:46;;;;;;;13.17;11.87;;;;;;;;;;5083807;28;24819;-51
2022/08/21 03:58:11;;;;;;;13.63;12.30;;;;;;;;;;5085883;28;24425;-50
2022/08/21 04:00:37;;;;;;;12.40;11.25;;;;;;;;;;5085207;28;24414;-51
2022/08/21 04:03:02;;;;;;;13.18;11.77;;;;;;;;;;5085771;28;24450;-51
2022/08/21 04:05:27;;;;;;;13.23;11.93;;;;;;;;;;5086449;28;24989;-51
2022/08/21 04:07:57;;;;;;;13.00;11.70;;;;;;;;;;5085455;28;24418;-50
2022/08/21 04:10:23;;;;;;;12.52;11.32;;;;;;;;;;5085911;28;24529;-51
2022/08/21 04:12:49;;;;;;;12.70;11.50;;;;;;;;;;5085815;28;24430;-51
2022/08/21 04:15:14;;;;;;;13.30;12.00;;;;;;;;;;5083410;28;24429;-50
2022/08/21 04:17:39;;;;;;;12.60;11.50;;;;;;;;;;5086907;28;24453;-50
2022/08/21 04:20:04;;;;;;;12.60;11.50;;;;;;;;;;5084024;28;24430;-50
2022/08/21 04:22:30;;;;;;;12.80;11.60;;;;;;;;;;5086716;28;24390;-50
2022/08/21 04:24:55;;;;;;;12.10;11.00;;;;;;;;;;5064868;28;24415;-50
2022/08/21 04:27:20;;;;;;;11.32;10.23;;;;;;;;;;5065301;28;24419;-50
2022/08/21 04:29:45;;;;;;;13.10;11.70;;;;;;;;;;5066211;28;25017;-50
2022/08/21 04:32:10;;;;;;;11.35;10.25;;;;;;;;;;5066035;28;24478;-50
2022/08/21 04:34:36;;;;;;;12.32;11.10;;;;;;;;;;5064921;28;24484;-50
2022/08/21 04:37:01;;;;;;;11.80;10.60;;;;;;;;;;5066468;28;24777;-50
2022/08/21 04:39:26;;;;;;;12.05;10.90;;;;;;;;;;5064180;28;24414;-50
2022/08/21 04:41:51;;;;;;;12.88;11.68;;;;;;;;;;5066579;28;24410;-49
2022/08/21 04:44:16;;;;;;;12.70;11.50;;;;;;;;;;5066717;28;24414;-50
2022/08/21 04:46:41;;;;;;;12.83;11.63;;;;;;;;;;5066727;28;24403;-50
2022/08/21 04:49:07;;;;;;;13.30;11.90;;;;;;;;;;5066070;28;24429;-51
2022/08/21 04:51:34;;;;;;;12.95;11.65;;;;;;;;;;5066696;28;24403;-49
2022/08/21 04:54:06;;;;;;;12.20;11.00;;;;;;;;;;5066397;28;24449;-49
2022/08/21 04:56:35;;;;;;;12.57;11.00;;;;;;;;;;5066388;28;24884;-50
2022/08/21 04:59:02;;;;;;;12.77;11.48;;;;;;;;;;5066237;28;24445;-51
2022/08/21 05:01:28;;;;;;;12.18;10.98;;;;;;;;;;5066489;28;24660;-50
2022/08/21 05:03:55;;;;;;;11.90;10.70;;;;;;;;;;5066144;28;24417;-50
2022/08/21 05:06:21;;;;;;;11.20;10.15;;;;;;;;;;5066409;28;24448;-50
2022/08/21 05:08:48;;;;;;;11.80;10.60;;;;;;;;;;5066279;28;24742;-51
2022/08/21 05:11:13;;;;;;;12.75;11.65;;;;;;;;;;5066246;28;24394;-49
2022/08/21 05:13:41;;;;;;;11.83;10.70;;;;;;;;;;5066411;28;24429;-49
2022/08/21 05:16:06;;;;;;;12.20;11.00;;;;;;;;;;5047915;28;24459;-49
2022/08/21 05:18:31;;;;;;;12.07;10.95;;;;;;;;;;5066591;28;25231;-47
2022/08/21 05:20:56;;;;;;;10.90;9.90;;;;;;;;;;5066471;28;24394;-49
2022/08/21 05:23:21;;;;;;;13.63;12.23;;;;;;;;;;5073451;28;24471;-49
2022/08/21 05:25:47;;;;;;;12.33;11.20;;;;;;;;;;5086469;28;24977;-50
2022/08/21 05:28:12;;;;;;;11.68;10.48;;;;;;;;;;5086120;28;24390;-48
2022/08/21 05:30:38;;;;;;;12.07;10.87;;;;;;;;;;5087763;28;24947;-50
2022/08/21 05:33:04;;;;;;;12.00;10.90;;;;;;;;;;5090143;28;24398;-49
2022/08/21 05:35:30;;;;;;;13.45;12.05;;;;;;;;;;5089936;28;24418;-48
2022/08/21 05:37:56;;;;;;;12.60;11.30;;;;;;;;;;5089582;28;24430;-49
2022/08/21 05:40:21;;;;;;;11.55;10.55;;;;;;;;;;5087921;28;24410;-50
2022/08/21 05:42:46;;;;;;;12.30;11.10;;;;;;;;;;5086225;28;24437;-49
2022/08/21 05:45:11;;;;;;;12.88;11.57;;;;;;;;;;5088687;28;25041;-49
2022/08/21 05:47:36;;;;;;;11.93;10.73;;;;;;;;;;5093222;28;25263;-50
2022/08/21 05:50:02;;;;;;;12.10;11.00;;;;;;;;;;5093220;28;24539;-50
2022/08/21 05:52:27;;;;;;;11.70;10.60;;;;;;;;;;5090590;28;24426;-50
2022/08/21 05:54:53;;;;;;;13.27;11.97;;;;;;;;;;5089915;28;24849;-49
2022/08/21 05:57:19;;;;;;;11.80;10.60;;;;;;;;;;5089113;28;24434;-49
2022/08/21 05:59:44;;;;;;;12.57;11.43;;;;;;;;;;5081322;28;24422;-50
2022/08/21 06:02:09;;;;;;;14.23;12.75;;;;;;;;;;5083901;28;24433;-49
2022/08/21 06:04:38;;;;;;;12.40;11.20;;;;;;;;;;5088064;28;24418;-49
2022/08/21 06:07:03;;;;;;;13.82;12.43;;;;;;;;;;5076729;28;24869;-50
2022/08/21 06:09:28;;;;;;;13.52;12.32;;;;;;;;;;5086868;28;24545;-49
2022/08/21 06:11:53;;;;;;;12.50;11.40;;;;;;;;;;5085697;28;24414;-49
2022/08/21 06:14:18;;;;;;;13.10;11.90;;;;;;;;;;5089603;28;24496;-49
2022/08/21 06:16:44;;;;;;;13.70;12.40;;;;;;;;;;5094782;28;24475;-50
2022/08/21 06:19:09;;;;;;;15.07;13.57;;;;;;;;;;5086868;28;25011;-50
2022/08/21 06:21:34;;;;;;;14.05;12.75;;;;;;;;;;5088749;28;24501;-50
2022/08/21 06:23:59;;;;;;;15.53;14.03;;;;;;;;;;5086040;28;25015;-51
2022/08/21 06:26:24;;;;;;;15.82;14.23;;;;;;;;;;5087555;28;24496;-50
2022/08/21 06:28:50;;;;;;;13.70;12.40;;;;;;;;;;5083084;28;24776;-50
2022/08/21 06:31:19;;;;;;;15.63;14.10;;;;;;;;;;5086643;28;24427;-50
2022/08/21 06:33:44;;;;;;;15.90;14.18;;;;;;;;;;5082532;28;24422;-50
2022/08/21 06:36:10;;;;;;;15.70;14.20;;;;;;;;;;5086368;28;24810;-49
2022/08/21 06:38:36;;;;;;;19.83;17.80;;;;;;;;;;5091023;28;24417;-50
2022/08/21 06:41:01;;;;;;;16.80;15.20;;;;;;;;;;5087864;28;24476;-51
2022/08/21 06:43:26;;;;;;;17.27;15.47;;;;;;;;;;5087304;28;24418;-50
2022/08/21 06:45:51;;;;;;;18.48;16.48;;;;;;;;;;5086900;28;24425;-50
2022/08/21 06:48:16;;;;;;;17.80;16.00;;;;;;;;;;5086537;28;24490;-50
2022/08/21 06:50:41;;;;;;;18.50;16.60;;;;;;;;;;5087201;28;24959;-50
2022/08/21 06:53:09;;;;;;;19.05;17.23;;;;;;;;;;5084673;28;24512;-49
2022/08/21 06:55:34;;;;;;;19.10;17.40;;;;;;;;;;5089032;28;24426;-50
2022/08/21 06:58:00;;;;;;;18.80;17.10;;;;;;;;;;5088433;28;24509;-50
2022/08/21 07:00:25;;;;;;;18.70;16.90;;;;;;;;;;5087545;28;24410;-50
2022/08/21 07:02:50;;;;;;;18.35;16.65;;;;;;;;;;5087346;28;25024;-50
2022/08/21 07:05:16;;;;;;;18.92;17.23;;;;;;;;;;5084952;28;24472;-50
2022/08/21 07:07:41;;;;;;;19.13;17.30;;;;;;;;;;5087842;28;24978;-51
2022/08/21 07:10:06;;;;;;;20.10;18.20;;;;;;;;;;5083483;28;24426;-48
2022/08/21 07:12:31;;;;;;;20.15;18.35;;;;;;;;;;5086325;28;24526;-48
2022/08/21 07:14:58;;;;;;;17.20;15.60;;;;;;;;;;5082305;28;24530;-50
2022/08/21 07:17:23;;;;;;;17.38;15.77;;;;;;;;;;5082795;28;24533;-49
2022/08/21 07:19:48;;;;;;;19.60;17.70;;;;;;;;;;5079533;28;24861;-50
2022/08/21 07:22:15;;;;;;;18.60;16.98;;;;;;;;;;5084436;28;24673;-50
2022/08/21 07:24:40;;;;;;;17.90;16.17;;;;;;;;;;5069300;28;24446;-50
2022/08/21 07:27:05;;;;;;;17.00;15.40;;;;;;;;;;5068120;28;24407;-48
2022/08/21 07:29:30;;;;;;;16.92;15.50;;;;;;;;;;5065697;28;24476;-48
2022/08/21 07:31:55;;;;;;;16.58;15.07;;;;;;;;;;5067336;28;24418;-49
2022/08/21 07:34:20;;;;;;;18.17;16.47;;;;;;;;;;5068527;28;24423;-50
2022/08/21 07:36:46;;;;;;;17.92;16.20;;;;;;;;;;5066863;28;24971;-50
2022/08/21 07:39:11;;;;;;;16.10;14.70;;;;;;;;;;5069839;28;24952;-50
2022/08/21 07:41:37;;;;;;;16.80;15.23;;;;;;;;;;5069935;28;24964;-49
2022/08/21 07:44:02;;;;;;;16.50;15.00;;;;;;;;;;5080787;28;24435;-49
2022/08/21 07:46:28;;;;;;;18.80;16.87;;;;;;;;;;5065659;28;24969;-48
2022/08/21 07:48:53;;;;;;;17.08;15.40;;;;;;;;;;5061647;28;24465;-48
2022/08/21 07:51:20;;;;;;;17.77;16.17;;;;;;;;;;5062982;28;24442;-49
2022/08/21 07:53:49;;;;;;;17.98;16.35;;;;;;;;;;5061631;28;24522;-49
2022/08/21 07:56:14;;;;;;;17.27;15.68;;;;;;;;;;5068905;28;24529;-49
2022/08/21 07:58:39;;;;;;;16.02;14.63;;;;;;;;;;5053734;28;24519;-49
2022/08/21 08:01:05;;;;;;;14.93;13.63;;;;;;;;;;5063600;28;24422;-49
2022/08/21 08:03:31;;;;;;;14.70;13.38;;;;;;;;;;5063667;28;24747;-49
2022/08/21 08:05:56;;;;;;;16.57;15.07;;;;;;;;;;5066298;28;24480;-49
2022/08/21 08:08:21;;;;;;;14.07;12.85;;;;;;;;;;5068792;28;25117;-48
2022/08/21 08:10:46;;;;;;;14.50;13.20;;;;;;;;;;5068144;28;24438;-49
2022/08/21 08:13:12;;;;;;;15.40;14.10;;;;;;;;;;5059647;28;24529;-49
2022/08/21 08:15:37;;;;;;;15.63;14.32;;;;;;;;;;5056359;28;24435;-49
2022/08/21 08:18:02;;;;;;;16.50;15.10;;;;;;;;;;5060752;28;24991;-48
2022/08/21 08:20:28;;;;;;;16.20;14.60;;;;;;;;;;5062901;28;24948;-48
2022/08/21 08:22:54;;;;;;;17.95;16.23;;;;;;;;;;5058459;28;24506;-49
2022/08/21 08:25:20;;;;;;;15.80;14.20;;;;;;;;;;5084885;28;24517;-48
2022/08/21 08:27:45;;;;;;;14.95;13.75;;;;;;;;;;5091616;28;24484;-48
2022/08/21 08:30:12;;;;;;;14.90;13.60;;;;;;;;;;5083496;28;24446;-48
2022/08/21 08:32:37;;;;;;;15.48;14.18;;;;;;;;;;5078914;28;24517;-49
2022/08/21 08:35:03;;;;;;;14.30;13.00;;;;;;;;;;5086030;28;24820;-49
2022/08/21 08:37:28;;;;;;;12.95;11.95;;;;;;;;;;5080741;28;25210;-49
2022/08/21 08:39:53;;;;;;;13.93;12.77;;;;;;;;;;5082424;28;25034;-48
2022/08/21 08:42:30;;;;;;;15.45;14.15;;;;;;;;;;5083877;28;24421;-48
2022/08/21 08:44:58;;;;;;;15.73;14.40;;;;;;;;;;5085317;28;24998;-49
2022/08/21 08:47:24;;;;;;;15.45;14.05;;;;;;;;;;5084203;28;24437;-49
2022/08/21 08:49:54;;;;;;;13.00;11.90;;;;;;;;;;5082545;28;24422;-50
2022/08/21 08:52:27;;;;;;;13.70;12.70;;;;;;;;;;5083924;28;24483;-49
2022/08/21 08:55:00;;;;;;;14.10;13.00;;;;;;;;;;5099277;28;24451;-49
2022/08/21 08:57:25;;;;;;;13.13;12.13;;;;;;;;;;5095599;28;24776;-49
2022/08/21 08:59:55;;;;;;;13.55;12.35;;;;;;;;;;5084530;28;21396;-49
2022/08/21 09:02:22;;;;;;;13.40;12.30;;;;;;;;;;5104865;28;24412;-49
2022/08/21 09:04:48;;;;;;;15.13;13.73;;;;;;;;;;5086458;28;24987;-48
2022/08/21 09:07:32;;;;;;;14.32;13.10;;;;;;;;;;5090116;28;24394;-49
2022/08/21 09:10:11;;;;;;;12.13;11.13;;;;;;;;;;5088420;28;24863;-49
2022/08/21 09:12:48;;;;;;;13.05;11.93;;;;;;;;;;5087018;28;24551;-48
2022/08/21 09:15:27;;;;;;;12.68;11.57;;;;;;;;;;5077472;28;24422;-48
2022/08/21 09:17:59;;;;;;;11.00;10.10;;;;;;;;;;5095352;28;24406;-49
2022/08/21 09:20:39;;;;;;;13.07;11.77;;;;;;;;;;5089151;28;24437;-48
2022/08/21 09:23:19;;;;;;;11.63;10.63;;;;;;;;;;5088589;28;24716;-51
2022/08/21 09:25:59;;;;;;;9.13;8.43;;;;;;;;;;5110420;28;24432;-49
2022/08/21 09:28:24;;;;;;;10.80;9.80;;;;;;;;;;5105064;28;24514;-49
2022/08/21 09:30:50;;;;;;;10.20;9.40;;;;;;;;;;5090872;28;24559;-49
2022/08/21 09:33:17;;;;;;;10.20;9.40;;;;;;;;;;5087389;28;24474;-49
2022/08/21 09:35:54;;;;;;;10.33;9.43;;;;;;;;;;5088611;28;24433;-49
2022/08/21 09:38:27;;;;;;;9.27;8.48;;;;;;;;;;5087375;28;24418;-48
2022/08/21 09:40:58;;;;;;;8.73;7.93;;;;;;;;;;5086290;28;24437;-48
2022/08/21 09:43:25;;;;;;;8.75;8.05;;;;;;;;;;5089756;28;24821;-48
2022/08/21 09:46:02;;;;;;;8.40;7.50;;;;;;;;;;5084894;28;24474;-48
2022/08/21 09:48:29;;;;;;;9.07;8.20;;;;;;;;;;5088861;28;24518;-48
2022/08/21 09:51:05;;;;;;;8.43;7.63;;;;;;;;;;5088965;28;24509;-49
2022/08/21 09:53:30;;;;;;;7.78;7.07;;;;;;;;;;5088538;28;24558;-48
2022/08/21 09:58:42;;;;;;;7.13;6.50;;;;;;;;;;5090869;28;24775;-49
2022/08/21 10:01:12;;;;;;;8.63;7.82;;;;;;;;;;5088978;28;24382;-48
2022/08/21 10:03:37;;;;;;;9.13;8.32;;;;;;;;;;5087824;28;25526;-48
2022/08/21 10:06:05;;;;;;;7.95;7.25;;;;;;;;;;5087085;28;24417;-48
2022/08/21 10:08:31;;;;;;;6.50;5.90;;;;;;;;;;5088610;28;24493;-48
2022/08/21 10:11:01;;;;;;;7.07;6.38;;;;;;;;;;5092100;28;24522;-49
2022/08/21 10:13:45;;;;;;;6.13;5.63;;;;;;;;;;5085255;28;24432;-49
2022/08/21 10:16:28;;;;;;;7.70;7.10;;;;;;;;;;5079001;28;24501;-48
2022/08/21 10:19:16;;;;;;;6.00;5.50;;;;;;;;;;5087003;28;24820;-48
2022/08/21 10:21:49;;;;;;;5.40;4.80;;;;;;;;;;5085153;28;24517;-49
2022/08/21 10:24:37;;;;;;;5.35;4.80;;;;;;;;;;5076855;28;24439;-49
2022/08/21 10:27:26;;;;;;;4.72;4.43;;;;;;;;;;5040034;28;24445;-49
2022/08/21 10:30:07;;;;;;;4.82;4.30;;;;;;;;;;5087138;28;24422;-49
2022/08/21 10:32:41;;;;;;;5.00;4.60;;;;;;;;;;5084696;28;24613;-49
2022/08/21 10:35:11;;;;;;;6.00;4.57;;;;;;;;;;5086059;28;24488;-49
2022/08/21 10:37:59;;;;;;;7.00;4.70;;;;;;;;;;5095651;28;24833;-48
2022/08/21 10:40:27;;;;;;;4.90;4.50;;;;;;;;;;5091263;28;24431;-49
2022/08/21 10:43:15;;;;;;;4.95;4.50;;;;;;;;;;5093233;28;24491;-48
2022/08/21 10:45:40;;;;;;;6.00;4.10;;;;;;;;;;5077035;28;24815;-48
2022/08/21 10:48:07;;;;;;;4.07;3.67;;;;;;;;;;5083247;28;25008;-48
2022/08/21 10:50:50;;;;;;;4.50;4.10;;;;;;;;;;5083733;28;24801;-48
2022/08/21 10:53:21;;;;;;;4.85;4.55;;;;;;;;;;5083731;28;24442;-49
2022/08/21 10:55:54;;;;;;;4.35;3.70;;;;;;;;;;5087127;28;25007;-48
2022/08/21 10:58:25;;;;;;;4.20;3.67;;;;;;;;;;5084913;28;24438;-49
2022/08/21 11:00:53;;;;;;;3.90;3.60;;;;;;;;;;5079557;28;24472;-48
2022/08/21 11:03:53;;;;;;;4.00;3.70;;;;;;;;;;5084022;28;24465;-48
2022/08/21 11:06:24;;;;;;;4.37;3.97;;;;;;;;;;5003719;28;24455;-48
2022/08/21 11:09:03;;;;;;;4.00;3.70;;;;;;;;;;5071575;28;24487;-48
2022/08/21 11:11:35;;;;;;;4.72;4.32;;;;;;;;;;5083142;28;24460;-49
2022/08/21 11:14:21;;;;;;;4.50;3.85;;;;;;;;;;5083902;28;24537;-49
2022/08/21 11:16:53;;;;;;;6.07;3.95;;;;;;;;;;5086063;28;24974;-49
2022/08/21 11:19:34;;;;;;;4.32;3.55;;;;;;;;;;5086842;28;24543;-49
2022/08/21 11:22:00;;;;;;;4.72;4.10;;;;;;;;;;5087864;28;24859;-48
2022/08/21 11:24:34;;;;;;;4.18;3.40;;;;;;;;;;5083774;28;25062;-48
2022/08/21 11:27:18;;;;;;;3.55;3.25;;;;;;;;;;5078917;28;24414;-48
2022/08/21 11:29:47;;;;;;;3.70;3.40;;;;;;;;;;5079891;28;24533;-47
2022/08/21 11:32:31;;;;;;;3.80;3.42;;;;;;;;;;5079297;28;24466;-48
2022/08/21 11:35:04;;;;;;;5.00;3.70;;;;;;;;;;5083576;28;24433;-48
2022/08/21 11:37:48;;;;;;;3.35;2.90;;;;;;;;;;5084098;28;24968;-48
2022/08/21 11:40:15;;;;;;;3.40;3.10;;;;;;;;;;5086327;28;24920;-48
2022/08/21 11:42:59;;;;;;;4.35;3.28;;;;;;;;;;5084687;28;24422;-48
2022/08/21 11:45:27;;;;;;;3.50;3.20;;;;;;;;;;5068728;28;24428;-49
2022/08/21 11:47:55;;;;;;;3.40;3.05;;;;;;;;;;5084035;28;24429;-48
2022/08/21 11:50:23;;;;;;;3.83;3.38;;;;;;;;;;5080934;28;24457;-49
2022/08/21 11:53:09;;;;;;;5.30;3.60;;;;;;;;;;5082267;28;24778;-48
2022/08/21 11:55:38;;;;;;;4.57;3.47;;;;;;;;;;5082361;28;24714;-49
2022/08/21 11:58:19;;;;;;;4.70;3.30;;;;;;;;;;5082245;28;24890;-49
2022/08/21 12:00:55;;;;;;;4.05;3.10;;;;;;;;;;5063736;28;24430;-49
2022/08/21 12:03:32;;;;;;;3.50;3.20;;;;;;;;;;5075106;28;24407;-48
2022/08/21 12:05:59;;;;;;;4.35;3.13;;;;;;;;;;5082097;28;25112;-49
2022/08/21 12:08:36;;;;;;;3.10;2.80;;;;;;;;;;5095672;28;24421;-49
2022/08/21 12:11:04;;;;;;;3.35;2.92;;;;;;;;;;5086217;28;24516;-47
2022/08/21 12:13:31;;;;;;;2.45;2.20;;;;;;;;;;5080786;28;24519;-49
2022/08/21 12:16:06;;;;;;;3.83;2.97;;;;;;;;;;5084426;28;24475;-49
2022/08/21 12:18:31;;;;;;;2.70;2.40;;;;;;;;;;5084539;28;24544;-48
2022/08/21 12:21:05;;;;;;;2.40;2.20;;;;;;;;;;5084585;28;24899;-48
2022/08/21 12:23:45;;;;;;;2.20;2.00;;;;;;;;;;5084631;28;24470;-49
2022/08/21 12:26:13;;;;;;;3.42;2.55;;;;;;;;;;5084788;28;24482;-49
2022/08/21 12:28:38;;;;;;;2.80;2.47;;;;;;;;;;5085682;28;24448;-49
2022/08/21 12:31:04;;;;;;;3.77;2.50;;;;;;;;;;5082469;28;24429;-50
2022/08/21 12:33:34;;;;;;;3.60;2.50;;;;;;;;;;5086744;28;24472;-49
2022/08/21 12:36:15;;;;;;;4.00;2.30;;;;;;;;;;5085216;28;24532;-48
2022/08/21 12:38:47;;;;;;;3.08;2.20;;;;;;;;;;5087880;28;24433;-48
2022/08/21 12:41:16;;;;;;;5.10;2.47;;;;;;;;;;5086482;28;24463;-49
2022/08/21 12:43:43;;;;;;;4.38;2.35;;;;;;;;;;5091051;28;24521;-47
2022/08/21 12:46:19;;;;;;;3.05;2.40;;;;;;;;;;5089938;28;24414;-48
2022/08/21 12:48:48;;;;;;;3.28;2.25;;;;;;;;;;5085910;28;24998;-49
2022/08/21 12:51:18;;;;;;;4.70;2.40;;;;;;;;;;5085941;28;24422;-49
2022/08/21 12:53:47;;;;;;;3.50;2.50;;;;;;;;;;5086449;28;24448;-49
2022/08/21 12:56:13;;;;;;;2.60;2.40;;;;;;;;;;5090754;28;24425;-49
2022/08/21 12:58:40;;;;;;;3.22;2.20;;;;;;;;;;5090290;28;24434;-49
2022/08/21 13:01:07;;;;;;;2.53;2.10;;;;;;;;;;5092351;28;24422;-49
2022/08/21 13:03:34;;;;;;;4.63;2.20;;;;;;;;;;5086807;28;25014;-49
2022/08/21 13:06:01;;;;;;;2.88;2.58;;;;;;;;;;5089693;28;24484;-48
2022/08/21 13:08:26;;;;;;;2.90;2.13;;;;;;;;;;5087106;28;24839;-49
2022/08/21 13:10:57;;;;;;;3.08;2.40;;;;;;;;;;5080229;28;24430;-48
2022/08/21 13:13:25;;;;;;;3.08;2.22;;;;;;;;;;5082208;28;24437;-48
2022/08/21 13:15:56;;;;;;;3.20;2.40;;;;;;;;;;5085022;28;24529;-49
2022/08/21 13:18:22;;;;;;;4.10;2.60;;;;;;;;;;5084920;28;24422;-48
2022/08/21 13:20:48;;;;;;;2.70;2.38;;;;;;;;;;5080561;28;25040;-49
2022/08/21 13:23:23;;;;;;;2.90;2.47;;;;;;;;;;5085812;28;24541;-48
2022/08/21 13:25:49;;;;;;;3.40;2.40;;;;;;;;;;5066780;28;25259;-48
2022/08/21 13:28:15;;;;;;;3.30;2.60;;;;;;;;;;5077901;28;25055;-49
2022/08/21 13:30:53;;;;;;;5.45;2.78;;;;;;;;;;5077873;28;24964;-50
2022/08/21 13:33:23;;;;;;;3.50;3.00;;;;;;;;;;5083166;28;25033;-48
2022/08/21 13:35:48;;;;;;;3.67;2.40;;;;;;;;;;5073023;28;24614;-50
2022/08/21 13:38:14;;;;;;;3.63;2.20;;;;;;;;;;5081454;28;24434;-49
2022/08/21 13:40:46;;;;;;;3.50;2.30;;;;;;;;;;5086470;28;24390;-49
2022/08/21 13:43:13;;;;;;;5.70;3.50;;;;;;;;;;5078749;28;24551;-48
2022/08/21 13:45:38;;;;;;;5.00;3.00;;;;;;;;;;5077275;28;24461;-48
2022/08/21 13:48:04;;;;;;;4.03;2.92;;;;;;;;;;5080558;28;24437;-49
2022/08/21 13:50:44;;;;;;;2.60;2.40;;;;;;;;;;5082899;28;24998;-49
2022/08/21 13:53:30;;;;;;;4.13;2.78;;;;;;;;;;5081167;28;24426;-48
2022/08/21 13:55:55;;;;;;;4.72;2.80;;;;;;;;;;5082367;28;24475;-48
2022/08/21 13:58:28;;;;;;;4.53;2.70;;;;;;;;;;5084756;28;24434;-48
2022/08/21 14:00:54;;;;;;;3.10;2.20;;;;;;;;;;5083533;28;24429;-49
2022/08/21 14:03:26;;;;;;;3.90;2.83;;;;;;;;;;5085203;28;24524;-48
2022/08/21 14:05:51;;;;;;;3.38;2.40;;;;;;;;;;5087327;28;25097;-46
2022/08/21 14:08:46;;;;;;;4.72;2.55;;;;;;;;;;5086777;28;24456;-49
2022/08/21 14:11:12;;;;;;;3.30;2.47;;;;;;;;;;5067279;28;25017;-49
2022/08/21 14:13:39;;;;;;;3.50;2.60;;;;;;;;;;5088790;28;24526;-49
2022/08/21 14:16:16;;;;;;;4.18;2.60;;;;;;;;;;5086082;28;24875;-48
2022/08/21 14:18:49;;;;;;;4.20;2.40;;;;;;;;;;5084385;28;24860;-49
2022/08/21 14:21:23;;;;;;;3.75;2.20;;;;;;;;;;5088063;28;24438;-49
2022/08/21 14:23:59;;;;;;;3.38;2.47;;;;;;;;;;5087391;28;24445;-49
2022/08/21 14:26:24;;;;;;;2.50;2.30;;;;;;;;;;5075785;28;24432;-49
2022/08/21 14:28:49;;;;;;;3.13;2.50;;;;;;;;;;5082412;28;24422;-49
2022/08/21 14:31:16;;;;;;;4.20;2.70;;;;;;;;;;5084426;28;25049;-49
2022/08/21 14:33:42;;;;;;;3.47;2.65;;;;;;;;;;5090691;28;24480;-49